Time;durP1;ratioP1;P1;durP2;ratioP2;P2;SDS_P1;SDS_P2;PMS_P1;PMS_P2;Temp;Humidity;BMP_temperature;BMP_pressure;BME280_temperature;BME280_humidity;BME280_pressure;Samples;Min_cycle;Max_cycle;Signal;HPM_P1;HPM_P2
2022/06/28 00:00:22;;;;;;;1.23;0.28;;;20.80;67.10;;;;;;5072740;28;20161;-73
2022/06/28 00:02:48;;;;;;;0.70;0.30;;;20.80;67.10;;;;;;5072199;28;20559;-73
2022/06/28 00:05:15;;;;;;;0.50;0.30;;;20.70;66.90;;;;;;5072393;28;20052;-72
2022/06/28 00:07:41;;;;;;;0.43;0.25;;;20.80;67.00;;;;;;5072320;28;20044;-73
2022/06/28 00:10:12;;;;;;;0.73;0.45;;;20.70;66.90;;;;;;5072363;28;20053;-73
2022/06/28 00:12:39;;;;;;;0.98;0.30;;;20.70;67.00;;;;;;5072192;28;20072;-73
2022/06/28 00:17:56;;;;;;;0.57;0.30;;;20.70;67.00;;;;;;5071992;28;20049;-73
2022/06/28 00:20:22;;;;;;;0.60;0.20;;;20.70;66.90;;;;;;5072135;28;20056;-73
2022/06/28 00:22:48;;;;;;;1.60;0.30;;;20.70;66.90;;;;;;5071988;28;20370;-73
2022/06/28 00:25:14;;;;;;;4.88;0.50;;;20.70;66.90;;;;;;5071321;28;20089;-73
2022/06/28 00:27:40;;;;;;;0.40;0.30;;;20.70;66.90;;;;;;5072157;28;20388;-73
2022/06/28 00:30:06;;;;;;;0.98;0.50;;;20.70;66.90;;;;;;5072231;28;20036;-74
2022/06/28 00:32:32;;;;;;;0.60;0.30;;;20.70;66.90;;;;;;5073044;28;20047;-73
2022/06/28 00:34:59;;;;;;;0.63;0.30;;;20.70;66.90;;;;;;5071885;28;20044;-74
2022/06/28 00:37:25;;;;;;;0.73;0.20;;;20.60;66.90;;;;;;5071733;28;20044;-73
2022/06/28 00:39:51;;;;;;;0.50;0.30;;;20.60;66.80;;;;;;5072916;28;20072;-73
2022/06/28 00:42:17;;;;;;;0.50;0.30;;;20.60;66.80;;;;;;5071768;28;20048;-74
2022/06/28 00:44:43;;;;;;;0.70;0.30;;;20.60;66.80;;;;;;5071533;28;20032;-74
2022/06/28 00:47:09;;;;;;;0.70;0.25;;;20.60;66.80;;;;;;5071581;28;20113;-73
2022/06/28 00:49:39;;;;;;;1.95;0.60;;;20.60;66.90;;;;;;5071820;28;20044;-73
2022/06/28 00:52:05;;;;;;;;;;;20.60;66.80;;;;;;5072132;28;20053;-73
2022/06/28 00:54:31;;;;;;;0.65;0.32;;;20.60;66.90;;;;;;5071360;28;19939;-74
2022/06/28 00:56:57;;;;;;;1.00;0.30;;;20.60;66.90;;;;;;5071686;28;20033;-73
2022/06/28 00:59:23;;;;;;;0.40;0.20;;;20.60;66.80;;;;;;5071588;28;20423;-73
2022/06/28 01:01:49;;;;;;;0.43;0.20;;;20.60;66.80;;;;;;5071174;28;20518;-73
2022/06/28 01:04:14;;;;;;;0.80;0.40;;;20.60;66.80;;;;;;5071430;28;20048;-73
2022/06/28 01:06:40;;;;;;;0.80;0.30;;;20.50;66.70;;;;;;5071503;28;20484;-74
2022/06/28 01:09:12;;;;;;;0.60;0.30;;;20.50;66.70;;;;;;5071051;28;20460;-73
2022/06/28 01:11:37;;;;;;;1.85;0.47;;;20.50;66.70;;;;;;5071064;28;20040;-73
2022/06/28 01:14:07;;;;;;;0.90;0.32;;;20.50;66.70;;;;;;5072327;28;20041;-73
2022/06/28 01:16:34;;;;;;;0.80;0.40;;;20.50;66.70;;;;;;5071168;28;20159;-73
2022/06/28 01:19:00;;;;;;;0.60;0.30;;;20.50;66.60;;;;;;5071037;28;20045;-73
2022/06/28 01:21:27;;;;;;;1.25;0.30;;;20.50;66.60;;;;;;5071086;28;20404;-73
2022/06/28 01:23:54;;;;;;;0.50;0.28;;;20.50;66.60;;;;;;5071202;28;20041;-73
2022/06/28 01:26:20;;;;;;;0.50;0.30;;;20.50;66.60;;;;;;5070928;28;20137;-75
2022/06/28 01:28:46;;;;;;;0.77;0.20;;;20.50;66.60;;;;;;5071041;28;20159;-73
2022/06/28 01:31:12;;;;;;;1.95;0.50;;;20.50;66.50;;;;;;5070813;28;20044;-74
2022/06/28 01:33:39;;;;;;;0.50;0.30;;;20.50;66.60;;;;;;5070801;28;20488;-73
2022/06/28 01:36:07;;;;;;;0.52;0.20;;;20.50;66.60;;;;;;5070633;28;20050;-72
2022/06/28 01:38:38;;;;;;;0.95;0.50;;;20.50;66.50;;;;;;5070951;28;20036;-72
2022/06/28 01:41:04;;;;;;;0.82;0.30;;;20.50;67.20;;;;;;5070976;28;20460;-72
2022/06/28 01:43:32;;;;;;;0.68;0.30;;;20.50;66.50;;;;;;5070920;28;20039;-72
2022/06/28 01:45:58;;;;;;;1.10;0.40;;;20.50;66.50;;;;;;5072042;28;20455;-73
2022/06/28 01:48:25;;;;;;;1.15;0.30;;;20.50;66.50;;;;;;5072013;28;20139;-74
2022/06/28 01:50:52;;;;;;;0.65;0.35;;;20.50;66.50;;;;;;5070815;28;20036;-74
2022/06/28 01:53:19;;;;;;;2.13;0.30;;;20.50;66.50;;;;;;5071190;28;20115;-74
2022/06/28 01:55:45;;;;;;;0.80;0.32;;;20.50;66.40;;;;;;5071167;28;20036;-74
2022/06/28 01:58:10;;;;;;;1.42;0.30;;;20.50;66.50;;;;;;5071880;28;20039;-73
2022/06/28 02:00:37;;;;;;;0.98;0.40;;;20.40;66.40;;;;;;5070762;28;20040;-73
2022/06/28 02:03:06;;;;;;;1.58;0.30;;;20.40;66.40;;;;;;5070202;28;20060;-73
2022/06/28 02:05:35;;;;;;;0.80;0.30;;;20.40;66.40;;;;;;5070582;28;20373;-73
2022/06/28 02:08:00;;;;;;;1.00;0.40;;;20.40;66.40;;;;;;5070683;28;20371;-73
2022/06/28 02:10:26;;;;;;;0.57;0.30;;;20.40;66.40;;;;;;5053649;28;20052;-73
2022/06/28 02:12:53;;;;;;;1.88;0.40;;;20.40;66.40;;;;;;5070465;28;20067;-73
2022/06/28 02:15:19;;;;;;;1.92;0.30;;;20.40;66.40;;;;;;5070640;28;20093;-71
2022/06/28 02:17:45;;;;;;;0.77;0.30;;;20.40;66.40;;;;;;5070580;28;20081;-73
2022/06/28 02:20:12;;;;;;;0.85;0.30;;;20.40;66.40;;;;;;5070568;28;20146;-73
2022/06/28 02:22:38;;;;;;;0.32;0.20;;;20.40;66.40;;;;;;5070306;28;20040;-73
2022/06/28 02:25:05;;;;;;;0.80;0.25;;;20.40;66.40;;;;;;5070487;28;20484;-73
2022/06/28 02:27:31;;;;;;;0.63;0.30;;;20.30;66.30;;;;;;5070289;28;20029;-73
2022/06/28 02:29:56;;;;;;;0.60;0.30;;;20.30;66.30;;;;;;5070681;28;20043;-74
2022/06/28 02:32:22;;;;;;;1.23;0.20;;;20.30;66.30;;;;;;5070170;28;20422;-73
2022/06/28 02:40:22;;;;;;;0.63;0.30;;;20.30;66.20;;;;;;5069953;28;20045;-73
2022/06/28 02:42:52;;;;;;;3.10;0.30;;;20.30;66.20;;;;;;5070101;28;20122;-73
2022/06/28 02:45:20;;;;;;;0.65;0.30;;;20.30;66.20;;;;;;5070277;28;20033;-73
2022/06/28 02:47:46;;;;;;;0.55;0.30;;;20.30;66.20;;;;;;5070838;28;20102;-73
2022/06/28 02:50:12;;;;;;;0.68;0.30;;;20.30;66.20;;;;;;5075053;28;20459;-73
2022/06/28 02:52:39;;;;;;;0.60;0.40;;;20.20;66.10;;;;;;5073706;28;20050;-73
2022/06/28 02:55:08;;;;;;;0.90;0.40;;;20.30;66.20;;;;;;5073758;28;20492;-74
2022/06/28 02:57:35;;;;;;;0.53;0.20;;;20.30;66.10;;;;;;5057261;28;20080;-73
2022/06/28 03:00:02;;;;;;;0.75;0.20;;;20.20;66.10;;;;;;5073895;28;20460;-74
2022/06/28 03:02:30;;;;;;;1.77;0.30;;;20.20;66.10;;;;;;5073343;28;20052;-73
2022/06/28 03:04:56;;;;;;;1.52;0.30;;;20.20;66.10;;;;;;5074684;28;20040;-73
2022/06/28 03:07:22;;;;;;;1.92;0.30;;;20.20;66.10;;;;;;5073358;28;20499;-72
2022/06/28 03:09:47;;;;;;;0.70;0.30;;;20.20;66.00;;;;;;5073569;28;20044;-73
2022/06/28 03:12:13;;;;;;;1.23;0.25;;;20.20;66.00;;;;;;5073705;28;20284;-73
2022/06/28 03:14:38;;;;;;;1.20;0.43;;;20.20;66.00;;;;;;5073455;28;20580;-74
2022/06/28 03:17:04;;;;;;;0.73;0.40;;;20.20;66.00;;;;;;5073277;28;20046;-73
2022/06/28 03:19:30;;;;;;;0.95;0.30;;;20.20;66.00;;;;;;5073278;28;20051;-72
2022/06/28 03:21:55;;;;;;;0.80;0.50;;;20.20;66.00;;;;;;5073359;28;20131;-72
2022/06/28 03:24:21;;;;;;;0.73;0.30;;;20.20;66.00;;;;;;5073461;28;20051;-74
2022/06/28 03:26:46;;;;;;;0.60;0.30;;;20.20;66.00;;;;;;5074672;28;20458;-73
2022/06/28 03:29:12;;;;;;;0.60;0.30;;;20.20;66.00;;;;;;5073098;28;20036;-73
2022/06/28 03:31:38;;;;;;;0.88;0.30;;;20.10;65.90;;;;;;5073108;28;20082;-73
2022/06/28 03:34:03;;;;;;;0.68;0.20;;;20.20;65.90;;;;;;5074339;28;20044;-72
2022/06/28 03:36:29;;;;;;;1.40;0.30;;;20.10;65.90;;;;;;5073259;28;20074;-73
2022/06/28 03:38:55;;;;;;;0.60;0.30;;;20.10;65.90;;;;;;5072917;28;20040;-73
2022/06/28 03:41:24;;;;;;;0.50;0.28;;;20.10;65.90;;;;;;5072887;28;20048;-74
2022/06/28 03:43:53;;;;;;;0.70;0.30;;;20.10;65.90;;;;;;5073032;28;20032;-73
2022/06/28 03:46:20;;;;;;;0.93;0.30;;;20.10;65.90;;;;;;5074291;28;20101;-74
2022/06/28 03:48:47;;;;;;;1.98;0.30;;;20.10;65.80;;;;;;5072815;28;20041;-74
2022/06/28 03:51:14;;;;;;;1.20;0.30;;;20.10;65.80;;;;;;5072516;28;20415;-74
2022/06/28 03:53:40;;;;;;;1.35;0.40;;;20.10;65.80;;;;;;5072665;28;20082;-72
2022/06/28 03:56:07;;;;;;;0.65;0.30;;;20.10;65.70;;;;;;5072693;28;20082;-74
2022/06/28 03:58:33;;;;;;;0.82;0.30;;;20.10;65.70;;;;;;5072895;28;20377;-73
2022/06/28 04:00:59;;;;;;;1.08;0.30;;;20.10;65.70;;;;;;5073519;28;20040;-72
2022/06/28 04:03:25;;;;;;;0.80;0.40;;;20.10;65.70;;;;;;5072481;28;20400;-74
2022/06/28 04:05:54;;;;;;;0.90;0.40;;;20.10;65.70;;;;;;5072369;28;20043;-73
2022/06/28 04:08:19;;;;;;;1.20;0.40;;;20.10;65.60;;;;;;5072487;28;20320;-73
2022/06/28 04:10:45;;;;;;;1.02;0.25;;;20.10;65.70;;;;;;5072330;28;20317;-72
2022/06/28 04:13:11;;;;;;;0.60;0.40;;;20.10;65.60;;;;;;5072387;28;20051;-74
2022/06/28 04:15:37;;;;;;;0.85;0.40;;;20.10;65.60;;;;;;5072179;28;20063;-73
2022/06/28 04:18:05;;;;;;;0.73;0.30;;;20.10;65.60;;;;;;5072737;28;20387;-73
2022/06/28 04:20:31;;;;;;;1.13;0.40;;;20.10;65.60;;;;;;5072296;28;20037;-72
2022/06/28 04:22:57;;;;;;;0.40;0.20;;;20.00;65.60;;;;;;5072110;28;20036;-73
2022/06/28 04:25:23;;;;;;;0.93;0.30;;;20.00;65.60;;;;;;5072464;28;20094;-73
2022/06/28 04:27:48;;;;;;;0.95;0.50;;;20.00;65.50;;;;;;5072010;28;20036;-73
2022/06/28 04:30:14;;;;;;;1.55;0.28;;;20.00;65.60;;;;;;5071872;28;20123;-71
2022/06/28 04:32:40;;;;;;;0.60;0.30;;;20.00;65.50;;;;;;5072428;28;20136;-73
2022/06/28 04:35:06;;;;;;;0.52;0.38;;;20.00;65.50;;;;;;5072040;28;20464;-72
2022/06/28 04:37:32;;;;;;;0.55;0.43;;;20.00;65.50;;;;;;5071819;28;20458;-73
2022/06/28 04:39:58;;;;;;;0.57;0.20;;;20.00;65.50;;;;;;5073011;28;20041;-73
2022/06/28 04:42:26;;;;;;;0.77;0.20;;;20.00;65.50;;;;;;5071868;28;20248;-72
2022/06/28 04:44:52;;;;;;;0.50;0.20;;;20.00;65.50;;;;;;5071449;28;20051;-73
2022/06/28 04:47:18;;;;;;;0.57;0.38;;;20.00;65.40;;;;;;5071634;28;20040;-73
2022/06/28 04:49:46;;;;;;;0.40;0.20;;;20.00;65.40;;;;;;5072776;28;20037;-73
2022/06/28 04:52:11;;;;;;;0.50;0.30;;;20.00;65.30;;;;;;5071761;28;20109;-73
2022/06/28 04:54:37;;;;;;;1.95;0.40;;;20.00;65.30;;;;;;5071784;28;20541;-72
2022/06/28 04:57:03;;;;;;;0.95;0.25;;;20.00;65.30;;;;;;5072797;28;20037;-72
2022/06/28 04:59:28;;;;;;;2.53;0.60;;;20.00;65.30;;;;;;5073035;28;20036;-73
2022/06/28 05:01:54;;;;;;;1.92;0.60;;;20.00;65.20;;;;;;5072303;28;20044;-73
2022/06/28 05:04:20;;;;;;;0.65;0.30;;;20.00;65.20;;;;;;5071222;28;20040;-73
2022/06/28 05:06:45;;;;;;;0.95;0.40;;;20.00;65.20;;;;;;5071117;28;20109;-73
2022/06/28 05:09:11;;;;;;;0.50;0.22;;;20.00;65.20;;;;;;5071156;28;20044;-73
2022/06/28 05:11:37;;;;;;;1.63;0.20;;;20.00;65.20;;;;;;5070615;28;20076;-73
2022/06/28 05:14:03;;;;;;;0.57;0.30;;;20.00;65.20;;;;;;5071145;28;20120;-73
2022/06/28 05:16:29;;;;;;;0.70;0.20;;;20.00;65.20;;;;;;5071274;28;20049;-72
2022/06/28 05:18:54;;;;;;;0.90;0.30;;;20.00;65.20;;;;;;5071034;28;20092;-72
2022/06/28 05:21:20;;;;;;;1.02;0.40;;;20.00;65.10;;;;;;5071022;28;20068;-73
2022/06/28 05:23:45;;;;;;;0.52;0.20;;;20.00;65.10;;;;;;5071215;28;20381;-74
2022/06/28 05:26:11;;;;;;;0.63;0.43;;;20.00;65.10;;;;;;5071593;28;20484;-66
2022/06/28 05:28:37;;;;;;;2.05;0.30;;;20.00;65.10;;;;;;5070111;28;20044;-66
2022/06/28 05:31:02;;;;;;;2.38;0.50;;;20.00;64.90;;;;;;5072491;28;20040;-67
2022/06/28 05:33:29;;;;;;;2.28;0.28;;;20.00;64.90;;;;;;5071632;28;20040;-66
2022/06/28 05:35:54;;;;;;;1.60;0.30;;;20.00;64.90;;;;;;5070302;28;20120;-66
2022/06/28 05:38:20;;;;;;;0.88;0.40;;;20.00;64.80;;;;;;5070694;28;21324;-66
2022/06/28 05:40:46;;;;;;;2.13;0.40;;;20.00;64.80;;;;;;5070689;28;20093;-66
2022/06/28 05:43:11;;;;;;;1.85;0.75;;;20.00;64.70;;;;;;5064198;28;20094;-66
2022/06/28 05:45:37;;;;;;;1.42;0.38;;;20.10;64.70;;;;;;5068127;28;20040;-67
2022/06/28 05:48:06;;;;;;;1.23;0.20;;;20.10;64.70;;;;;;5069541;28;20040;-66
2022/06/28 05:50:31;;;;;;;0.55;0.20;;;20.00;64.60;;;;;;5067399;28;20052;-67
2022/06/28 05:52:57;;;;;;;3.60;0.80;;;20.00;64.60;;;;;;5074563;28;20044;-66
2022/06/28 05:55:22;;;;;;;1.23;0.30;;;20.00;64.60;;;;;;5068684;28;20055;-64
2022/06/28 05:57:48;;;;;;;2.58;0.32;;;20.00;64.60;;;;;;5055118;28;20036;-66
2022/06/28 06:00:15;;;;;;;1.15;0.30;;;20.00;64.50;;;;;;5068208;28;20119;-67
2022/06/28 06:02:40;;;;;;;1.58;0.20;;;20.00;64.50;;;;;;5061198;28;20053;-66
2022/06/28 06:05:06;;;;;;;4.07;0.80;;;20.00;64.40;;;;;;5066294;28;20044;-67
2022/06/28 06:07:32;;;;;;;2.15;0.30;;;20.10;64.40;;;;;;5056969;28;20078;-68
2022/06/28 06:09:58;;;;;;;2.08;0.40;;;20.10;64.40;;;;;;5045952;28;20134;-67
2022/06/28 06:12:24;;;;;;;4.25;0.60;;;20.00;64.40;;;;;;5059956;28;20067;-68
2022/06/28 06:14:49;;;;;;;2.55;0.55;;;20.10;64.40;;;;;;5051211;28;20130;-70
2022/06/28 06:17:15;;;;;;;2.30;0.50;;;20.00;64.40;;;;;;5062254;28;20051;-70
2022/06/28 06:19:41;;;;;;;3.90;0.30;;;20.10;64.40;;;;;;5049173;28;20068;-69
2022/06/28 06:22:06;;;;;;;1.13;0.30;;;20.00;64.40;;;;;;5045009;28;20100;-69
2022/06/28 06:24:32;;;;;;;1.77;0.63;;;20.10;64.40;;;;;;5053676;28;20464;-69
2022/06/28 06:26:58;;;;;;;3.20;0.40;;;20.10;64.30;;;;;;5045203;28;20040;-70
2022/06/28 06:29:24;;;;;;;1.23;0.30;;;20.10;64.30;;;;;;5053595;28;20086;-73
2022/06/28 06:31:50;;;;;;;1.73;0.32;;;20.10;64.30;;;;;;5053655;28;20076;-76
2022/06/28 06:34:16;;;;;;;4.15;0.40;;;20.10;64.30;;;;;;5054033;28;20041;-72
2022/06/28 06:36:43;;;;;;;3.53;0.40;;;20.10;64.20;;;;;;5058248;28;20045;-72
2022/06/28 06:39:09;;;;;;;2.47;0.20;;;20.10;64.20;;;;;;5069653;28;20577;-73
2022/06/28 06:41:35;;;;;;;1.25;0.20;;;20.10;64.10;;;;;;5054122;28;20049;-73
2022/06/28 06:44:01;;;;;;;1.00;0.20;;;20.20;64.20;;;;;;5059537;28;20499;-71
2022/06/28 06:46:26;;;;;;;0.82;0.30;;;20.10;64.00;;;;;;5045312;28;20040;-71
2022/06/28 06:48:52;;;;;;;1.05;0.20;;;20.20;64.10;;;;;;5071620;28;20536;-71
2022/06/28 06:51:18;;;;;;;2.97;0.30;;;20.20;64.00;;;;;;5070840;28;20083;-70
2022/06/28 06:53:44;;;;;;;4.15;0.50;;;20.20;64.40;;;;;;5055964;28;20079;-68
2022/06/28 06:56:13;;;;;;;3.08;0.80;;;20.20;64.60;;;;;;5052067;28;20060;-72
2022/06/28 06:58:39;;;;;;;3.13;0.50;;;20.20;64.70;;;;;;5050378;28;20037;-70
2022/06/28 07:01:05;;;;;;;3.13;0.50;;;20.20;65.10;;;;;;5050885;28;20036;-74
2022/06/28 07:03:31;;;;;;;5.28;0.50;;;20.30;65.40;;;;;;5069117;28;20095;-74
2022/06/28 07:05:56;;;;;;;7.35;0.40;;;20.30;65.50;;;;;;5054081;28;20568;-73
2022/06/28 07:08:22;;;;;;;5.90;0.73;;;20.40;65.80;;;;;;5051401;28;20396;-72
2022/06/28 07:10:48;;;;;;;4.90;0.55;;;20.40;65.90;;;;;;5052535;28;20101;-71
2022/06/28 07:13:16;;;;;;;6.03;0.70;;;20.40;66.80;;;;;;5050559;28;20055;-72
2022/06/28 07:15:43;;;;;;;3.88;0.50;;;20.50;66.10;;;;;;5054140;28;20132;-69
2022/06/28 07:18:08;;;;;;;4.75;0.45;;;20.50;66.10;;;;;;5052612;28;20048;-70
2022/06/28 07:20:34;;;;;;;3.67;0.40;;;20.50;66.10;;;;;;5068261;28;20048;-72
2022/06/28 07:23:00;;;;;;;3.33;0.50;;;20.50;66.10;;;;;;5054218;28;20045;-70
2022/06/28 07:25:26;;;;;;;4.63;0.73;;;20.50;66.10;;;;;;5069369;28;20671;-72
2022/06/28 07:27:52;;;;;;;3.95;0.40;;;20.60;66.10;;;;;;5051035;28;20119;-73
2022/06/28 07:30:17;;;;;;;3.92;0.52;;;20.60;66.20;;;;;;5054578;28;20496;-71
2022/06/28 07:32:44;;;;;;;5.57;0.80;;;20.60;66.30;;;;;;5065448;28;20044;-71
2022/06/28 07:35:09;;;;;;;5.47;0.40;;;20.60;66.10;;;;;;5051200;28;20040;-73
2022/06/28 07:37:38;;;;;;;2.65;0.40;;;20.70;66.20;;;;;;5052927;28;20706;-72
2022/06/28 07:40:06;;;;;;;3.13;0.30;;;20.70;66.20;;;;;;5053675;28;20067;-70
2022/06/28 07:42:32;;;;;;;4.07;0.32;;;20.80;66.00;;;;;;5056050;28;20041;-71
2022/06/28 07:44:57;;;;;;;2.55;0.60;;;20.80;65.70;;;;;;5056624;28;20047;-71
2022/06/28 07:47:26;;;;;;;18.83;1.60;;;20.90;65.50;;;;;;5063095;28;20037;-71
2022/06/28 07:52:38;;;;;;;76.00;10.85;;;20.80;65.30;;;;;;5052225;28;20131;-70
2022/06/28 07:55:06;;;;;;;58.20;8.23;;;20.90;65.30;;;;;;5047834;28;20488;-76
2022/06/28 07:57:35;;;;;;;56.58;7.47;;;20.90;65.20;;;;;;5054320;28;20051;-73
2022/06/28 08:00:01;;;;;;;60.17;9.40;;;21.00;65.20;;;;;;5052818;28;20408;-78
2022/06/28 08:02:28;;;;;;;71.13;12.48;;;21.00;65.00;;;;;;5041395;28;20044;-78
2022/06/28 08:04:56;;;;;;;71.35;11.00;;;21.00;65.00;;;;;;5054584;28;20059;-74
2022/06/28 08:07:22;;;;;;;77.60;12.73;;;21.00;64.90;;;;;;5054100;28;20045;-72
2022/06/28 08:09:48;;;;;;;46.05;5.95;;;21.00;64.90;;;;;;5050083;28;20047;-74
2022/06/28 08:12:14;;;;;;;61.35;8.50;;;21.00;65.10;;;;;;5073004;28;20029;-74
2022/06/28 08:14:39;;;;;;;38.28;5.80;;;21.00;65.10;;;;;;5055700;28;20041;-70
2022/06/28 08:17:05;;;;;;;20.65;3.30;;;21.10;65.10;;;;;;5050799;28;20044;-71
2022/06/28 08:19:31;;;;;;;22.83;3.03;;;21.20;64.80;;;;;;5055117;28;20032;-71
2022/06/28 08:21:57;;;;;;;17.52;2.28;;;21.20;64.60;;;;;;5054355;28;20559;-73
2022/06/28 08:24:23;;;;;;;13.90;2.33;;;21.30;65.30;;;;;;5059872;28;20035;-72
2022/06/28 08:26:48;;;;;;;17.17;1.92;;;21.30;64.30;;;;;;5054542;28;20033;-73
2022/06/28 08:29:17;;;;;;;9.50;1.77;;;21.40;64.20;;;;;;5055352;28;20044;-74
2022/06/28 08:31:44;;;;;;;21.92;2.28;;;21.50;64.00;;;;;;5055294;28;20037;-71
2022/06/28 08:34:10;;;;;;;14.32;2.63;;;21.50;63.70;;;;;;5053705;28;20055;-74
2022/06/28 08:36:36;;;;;;;11.63;1.67;;;21.60;63.70;;;;;;5073846;28;20041;-75
2022/06/28 08:39:03;;;;;;;11.93;1.60;;;21.60;63.60;;;;;;5055687;28;20037;-69
2022/06/28 08:41:31;;;;;;;6.85;1.08;;;21.70;63.40;;;;;;5056005;28;20040;-71
2022/06/28 08:43:57;;;;;;;11.40;1.23;;;21.70;63.20;;;;;;5053326;28;20669;-70
2022/06/28 08:46:24;;;;;;;7.65;0.82;;;21.70;63.00;;;;;;5059771;28;20127;-70
2022/06/28 08:48:52;;;;;;;8.48;1.15;;;21.80;62.90;;;;;;5048074;28;20040;-74
2022/06/28 08:51:18;;;;;;;8.02;1.05;;;21.80;62.80;;;;;;5042286;28;20128;-75
2022/06/28 08:53:47;;;;;;;6.20;0.93;;;21.80;62.60;;;;;;5052003;28;20515;-74
2022/06/28 08:56:15;;;;;;;13.00;1.50;;;21.80;62.60;;;;;;5051295;28;20055;-75
2022/06/28 08:58:43;;;;;;;22.13;2.97;;;21.90;62.50;;;;;;5054240;28;20040;-79
2022/06/28 09:01:10;;;;;;;30.63;3.10;;;22.00;62.30;;;;;;5050702;28;20040;-77
2022/06/28 09:03:37;;;;;;;25.90;2.28;;;22.10;61.90;;;;;;5053334;28;20129;-75
2022/06/28 09:06:07;;;;;;;31.25;3.75;;;22.40;61.40;;;;;;5068380;28;20110;-74
2022/06/28 09:08:34;;;;;;;26.52;3.47;;;22.70;60.50;;;;;;5050674;28;20040;-77
2022/06/28 09:11:00;;;;;;;21.35;3.13;;;23.00;59.60;;;;;;5053456;28;20102;-77
2022/06/28 09:13:26;;;;;;;22.42;2.00;;;23.30;58.90;;;;;;5067049;28;20423;-75
2022/06/28 09:15:58;;;;;;;25.17;2.75;;;23.50;58.30;;;;;;5047819;28;20526;-77
2022/06/28 09:18:42;;;;;;;14.60;2.60;;;23.70;57.80;;;;;;5047646;28;20435;-75
2022/06/28 09:21:10;;;;;;;17.13;1.50;;;23.90;57.40;;;;;;5047196;28;20052;-78
2022/06/28 09:23:39;;;;;;;10.32;1.55;;;24.00;56.90;;;;;;5062235;28;20839;-75
2022/06/28 09:28:52;;;;;;;10.43;2.22;;;24.20;57.40;;;;;;5055786;27;20508;-76
2022/06/28 09:36:55;;;;;;;8.50;0.85;;;24.30;56.40;;;;;;5091879;27;21016;-72
2022/06/28 09:39:28;;;;;;;8.27;0.85;;;24.60;56.00;;;;;;5057154;28;20133;-76
2022/06/28 09:41:56;;;;;;;8.13;0.73;;;24.60;55.60;;;;;;5060802;28;20225;-78
2022/06/28 09:44:25;;;;;;;10.93;1.10;;;24.60;55.50;;;;;;5061166;28;20044;-78
2022/06/28 09:46:57;;;;;;;10.00;0.57;;;24.50;55.70;;;;;;5067305;28;20045;-78
2022/06/28 09:49:28;;;;;;;12.07;2.17;;;24.50;55.70;;;;;;5065104;28;20105;-76
2022/06/28 09:51:56;;;;;;;13.75;1.73;;;24.30;55.90;;;;;;5061111;28;20110;-76
2022/06/28 09:54:25;;;;;;;10.15;1.13;;;24.40;55.90;;;;;;5055179;28;20051;-75
2022/06/28 09:56:54;;;;;;;8.60;0.80;;;24.40;55.90;;;;;;5053529;28;20120;-73
2022/06/28 09:59:21;;;;;;;14.40;1.02;;;24.40;55.70;;;;;;5073619;28;20040;-76
2022/06/28 10:01:48;;;;;;;10.73;0.63;;;24.50;55.70;;;;;;5047053;28;20036;-70
2022/06/28 10:04:14;;;;;;;8.35;1.05;;;24.50;55.70;;;;;;5075690;28;20064;-75
2022/06/28 10:06:41;;;;;;;11.25;1.20;;;24.50;55.60;;;;;;5053728;28;20041;-75
2022/06/28 10:09:06;;;;;;;6.72;0.73;;;24.50;55.50;;;;;;5070692;28;20037;-73
2022/06/28 10:15:01;;;;;;;11.07;1.13;;;24.50;55.30;;;;;;5056363;28;20055;-73
2022/06/28 10:20:20;;;;;;;4.22;0.40;;;24.50;55.20;;;;;;5110143;27;20934;-78
2022/06/28 10:22:46;;;;;;;5.10;0.40;;;24.50;55.10;;;;;;5109896;27;20489;-77
2022/06/28 10:25:17;;;;;;;5.18;0.30;;;24.60;54.90;;;;;;5111915;27;20097;-77
2022/06/28 10:27:45;;;;;;;7.40;0.35;;;24.50;54.60;;;;;;5129573;27;20048;-75
2022/06/28 10:33:08;;;;;;;5.40;0.50;;;24.50;54.50;;;;;;5067170;28;20936;-75
2022/06/28 10:40:52;;;;;;;3.83;0.45;;;24.40;54.30;;;;;;5120034;27;1161048;-74
2022/06/28 10:46:12;;;;;;;2.40;0.30;;;24.00;55.20;;;;;;5061319;28;20429;-74
2022/06/28 10:51:32;;;;;;;2.85;0.50;;;24.00;55.40;;;;;;5114481;27;20375;-73
2022/06/28 10:54:01;;;;;;;11.00;0.93;;;23.90;55.40;;;;;;5096875;28;20082;-71
2022/06/28 10:56:29;;;;;;;11.57;1.13;;;23.80;55.50;;;;;;5094829;28;20396;-72
2022/06/28 11:07:20;;;;;;;6.05;0.38;;;23.90;55.30;;;;;;5102972;27;20400;-71
2022/06/28 11:09:52;;;;;;;6.00;0.50;;;23.80;55.00;;;;;;5075822;28;20232;-70
2022/06/28 11:15:00;;;;;;;11.70;0.30;;;23.80;54.90;;;;;;5093019;27;20443;-69
2022/06/28 11:17:29;;;;;;;8.52;0.30;;;23.70;55.10;;;;;;5080086;28;20040;-69
2022/06/28 11:20:00;;;;;;;6.07;0.75;;;23.70;55.10;;;;;;5081287;28;20044;-71
2022/06/28 11:25:11;;;;;;;3.97;0.45;;;23.70;54.70;;;;;;5109988;27;20504;-70
2022/06/28 11:27:44;;;;;;;3.42;1.25;;;23.70;54.60;;;;;;5128745;27;20035;-71
2022/06/28 11:30:10;;;;;;;3.60;0.30;;;23.70;54.70;;;;;;5100587;28;20434;-71
2022/06/28 11:32:39;;;;;;;3.53;0.22;;;23.70;54.80;;;;;;5103715;28;20027;-71
2022/06/28 11:37:53;;;;;;;4.55;0.20;;;23.80;55.10;;;;;;5065239;28;20376;-72
2022/06/28 11:40:21;;;;;;;3.85;0.30;;;23.90;55.20;;;;;;5069077;28;20568;-71
2022/06/28 11:42:59;;;;;;;4.40;0.20;;;23.90;55.40;;;;;;5067370;28;20144;-71
2022/06/28 11:45:29;;;;;;;2.72;0.20;;;23.90;55.50;;;;;;5052566;28;20040;-71
2022/06/28 11:47:55;;;;;;;3.88;0.40;;;23.90;55.60;;;;;;5056304;28;20051;-70
2022/06/28 11:50:21;;;;;;;6.93;0.30;;;23.90;55.60;;;;;;5058350;28;20044;-69
2022/06/28 11:52:49;;;;;;;2.38;0.60;;;23.90;55.70;;;;;;5056797;28;20048;-68
2022/06/28 11:55:15;;;;;;;2.38;0.20;;;23.90;55.90;;;;;;5053639;28;20488;-68
2022/06/28 11:57:41;;;;;;;1.33;0.17;;;24.00;55.90;;;;;;5052192;28;20051;-69
2022/06/28 12:00:07;;;;;;;3.83;0.20;;;24.00;55.80;;;;;;5052443;28;20037;-70
2022/06/28 12:02:42;;;;;;;4.22;0.15;;;24.10;55.90;;;;;;5052661;28;20721;-70
2022/06/28 12:05:10;;;;;;;6.40;0.30;;;24.00;55.80;;;;;;5046703;28;20056;-70
2022/06/28 12:07:38;;;;;;;2.13;0.20;;;24.10;55.70;;;;;;5065174;28;20664;-71
2022/06/28 12:10:04;;;;;;;1.20;0.25;;;24.10;55.70;;;;;;5048189;28;20037;-69
2022/06/28 12:12:30;;;;;;;4.45;0.30;;;24.20;55.70;;;;;;5054518;28;20094;-69
2022/06/28 12:14:57;;;;;;;3.53;0.10;;;24.10;55.70;;;;;;5053444;28;20528;-67
2022/06/28 12:17:23;;;;;;;4.20;0.30;;;24.10;55.80;;;;;;5050687;28;20559;-69
2022/06/28 12:19:49;;;;;;;4.85;0.30;;;24.10;55.80;;;;;;5064039;28;21922;-70
2022/06/28 12:22:23;;;;;;;2.85;0.20;;;24.10;56.00;;;;;;5052415;28;20068;-70
2022/06/28 12:27:33;;;;;;;2.25;0.30;;;24.10;56.10;;;;;;5094988;27;21076;-69
2022/06/28 12:30:00;;;;;;;4.97;0.25;;;24.20;56.00;;;;;;5103258;27;20264;-69
2022/06/28 12:32:27;;;;;;;5.82;0.20;;;24.30;55.80;;;;;;5093125;28;20084;-69
2022/06/28 12:34:58;;;;;;;4.30;0.30;;;24.30;55.60;;;;;;5088771;28;20476;-70
2022/06/28 12:37:25;;;;;;;6.00;0.52;;;24.30;55.30;;;;;;5091409;28;20537;-70
2022/06/28 12:39:51;;;;;;;3.53;0.30;;;24.30;55.40;;;;;;5086257;28;20096;-70
2022/06/28 12:42:17;;;;;;;4.32;0.20;;;24.30;55.50;;;;;;5088609;28;20094;-69
2022/06/28 12:44:42;;;;;;;5.15;0.85;;;24.30;55.70;;;;;;5078635;28;20425;-69
2022/06/28 12:47:11;;;;;;;4.35;0.40;;;24.30;55.70;;;;;;5084704;28;20097;-73
2022/06/28 12:49:37;;;;;;;5.60;0.45;;;24.30;55.60;;;;;;5081140;28;20123;-73
2022/06/28 12:52:04;;;;;;;6.40;0.73;;;24.30;55.50;;;;;;5080790;28;20112;-69
2022/06/28 12:54:31;;;;;;;4.80;0.30;;;24.30;55.30;;;;;;5086150;28;20680;-70
2022/06/28 12:56:58;;;;;;;4.50;0.20;;;24.30;55.10;;;;;;5083501;28;20131;-70
2022/06/28 12:59:23;;;;;;;7.10;0.40;;;24.30;55.10;;;;;;5079290;28;20624;-70
2022/06/28 13:01:49;;;;;;;1.33;0.20;;;24.40;55.00;;;;;;5082132;28;20044;-70
2022/06/28 13:04:16;;;;;;;4.53;0.20;;;24.40;54.60;;;;;;5085206;28;20044;-72
2022/06/28 13:06:44;;;;;;;4.85;0.50;;;24.40;54.30;;;;;;5084049;28;20036;-71
2022/06/28 13:09:10;;;;;;;4.80;0.95;;;24.50;54.00;;;;;;5085405;28;20670;-70
2022/06/28 13:11:36;;;;;;;3.38;0.20;;;24.50;53.80;;;;;;5085559;28;20092;-71
2022/06/28 13:14:01;;;;;;;6.32;0.20;;;24.50;53.70;;;;;;5089170;28;20130;-71
2022/06/28 13:16:30;;;;;;;4.80;0.20;;;24.50;53.40;;;;;;5095461;28;20040;-71
2022/06/28 13:18:56;;;;;;;7.30;0.98;;;24.40;53.20;;;;;;5098595;28;20044;-71
2022/06/28 13:21:22;;;;;;;4.63;0.50;;;24.30;53.20;;;;;;5082036;28;20188;-71
2022/06/28 13:23:48;;;;;;;5.97;0.43;;;24.30;53.40;;;;;;5079303;28;20040;-72
2022/06/28 13:26:16;;;;;;;10.38;0.43;;;24.30;53.60;;;;;;5098857;28;20059;-71
2022/06/28 13:28:42;;;;;;;4.50;0.32;;;24.20;53.70;;;;;;5099681;28;20059;-72
2022/06/28 13:31:08;;;;;;;2.97;0.47;;;24.20;53.80;;;;;;5100714;28;20039;-72
2022/06/28 13:33:34;;;;;;;3.78;0.20;;;24.20;53.90;;;;;;5099535;28;20032;-72
2022/06/28 13:36:00;;;;;;;3.20;0.30;;;24.30;54.00;;;;;;5101519;28;20518;-71
2022/06/28 13:38:26;;;;;;;3.58;0.30;;;24.20;53.90;;;;;;5090228;28;20044;-72
2022/06/28 13:40:52;;;;;;;3.92;0.25;;;24.20;53.90;;;;;;5087293;28;20047;-72